sensor_id;sensor_type;location;lat;lon;timestamp;pressure;altitude;pressure_sealevel;temperature;humidity
36828;BME280;22766;48.042;11.192;2024-01-06T00:01:24;93759.72;;;4.84;100.00
36828;BME280;22766;48.042;11.192;2024-01-06T00:03:51;93761.03;;;4.88;100.00
36828;BME280;22766;48.042;11.192;2024-01-06T00:06:18;93751.28;;;4.92;100.00
36828;BME280;22766;48.042;11.192;2024-01-06T00:08:45;93751.78;;;4.95;100.00
36828;BME280;22766;48.042;11.192;2024-01-06T00:11:12;93752.72;;;4.94;100.00
36828;BME280;22766;48.042;11.192;2024-01-06T00:13:39;93753.53;;;4.95;100.00
36828;BME280;22766;48.042;11.192;2024-01-06T00:16:06;93744.78;;;4.97;100.00
36828;BME280;22766;48.042;11.192;2024-01-06T00:18:33;93740.31;;;4.99;100.00
36828;BME280;22766;48.042;11.192;2024-01-06T00:21:00;93745.72;;;4.96;100.00
36828;BME280;22766;48.042;11.192;2024-01-06T00:23:27;93742.88;;;4.99;100.00
36828;BME280;22766;48.042;11.192;2024-01-06T00:25:54;93741.63;;;5.03;100.00
36828;BME280;22766;48.042;11.192;2024-01-06T00:28:20;93742.06;;;4.99;100.00
36828;BME280;22766;48.042;11.192;2024-01-06T00:30:47;93745.44;;;4.99;100.00
36828;BME280;22766;48.042;11.192;2024-01-06T00:33:14;93740.31;;;4.99;100.00
36828;BME280;22766;48.042;11.192;2024-01-06T00:35:41;93742.06;;;4.99;100.00
36828;BME280;22766;48.042;11.192;2024-01-06T00:38:08;93736.28;;;4.97;100.00
36828;BME280;22766;48.042;11.192;2024-01-06T00:40:34;93737.25;;;4.96;100.00
36828;BME280;22766;48.042;11.192;2024-01-06T00:43:02;93731.94;;;4.89;100.00
36828;BME280;22766;48.042;11.192;2024-01-06T00:45:28;93730.69;;;4.93;100.00
36828;BME280;22766;48.042;11.192;2024-01-06T00:47:55;93726.06;;;4.97;100.00
36828;BME280;22766;48.042;11.192;2024-01-06T00:50:23;93718.25;;;4.98;100.00
36828;BME280;22766;48.042;11.192;2024-01-06T00:52:49;93723.34;;;4.98;100.00
36828;BME280;22766;48.042;11.192;2024-01-06T00:55:20;93723.34;;;4.98;100.00
36828;BME280;22766;48.042;11.192;2024-01-06T00:57:47;93731.50;;;4.94;100.00
36828;BME280;22766;48.042;11.192;2024-01-06T01:00:14;93735.44;;;4.88;100.00
36828;BME280;22766;48.042;11.192;2024-01-06T01:02:42;93736.81;;;4.83;100.00
36828;BME280;22766;48.042;11.192;2024-01-06T01:05:08;93735.38;;;4.80;100.00
36828;BME280;22766;48.042;11.192;2024-01-06T01:07:36;93743.06;;;4.80;100.00
36828;BME280;22766;48.042;11.192;2024-01-06T01:10:03;93735.38;;;4.80;100.00
36828;BME280;22766;48.042;11.192;2024-01-06T01:12:29;93731.44;;;4.86;100.00
36828;BME280;22766;48.042;11.192;2024-01-06T01:14:56;93735.16;;;4.73;100.00
36828;BME280;22766;48.042;11.192;2024-01-06T01:17:23;93731.50;;;4.76;100.00
36828;BME280;22766;48.042;11.192;2024-01-06T01:19:50;93739.91;;;4.68;100.00
36828;BME280;22766;48.042;11.192;2024-01-06T01:22:17;93740.19;;;4.83;100.00
36828;BME280;22766;48.042;11.192;2024-01-06T01:24:44;93739.59;;;4.89;100.00
36828;BME280;22766;48.042;11.192;2024-01-06T01:27:11;93750.13;;;4.86;100.00
36828;BME280;22766;48.042;11.192;2024-01-06T01:29:37;93748.81;;;4.82;100.00
36828;BME280;22766;48.042;11.192;2024-01-06T01:32:05;93755.34;;;4.77;100.00
36828;BME280;22766;48.042;11.192;2024-01-06T01:34:32;93750.13;;;4.86;100.00
36828;BME280;22766;48.042;11.192;2024-01-06T01:36:59;93758.47;;;4.88;100.00
36828;BME280;22766;48.042;11.192;2024-01-06T01:39:26;93755.44;;;4.93;100.00
36828;BME280;22766;48.042;11.192;2024-01-06T01:41:54;93759.91;;;4.91;100.00
36828;BME280;22766;48.042;11.192;2024-01-06T01:44:21;93763.78;;;4.95;100.00
36828;BME280;22766;48.042;11.192;2024-01-06T01:46:48;93762.19;;;4.76;100.00
36828;BME280;22766;48.042;11.192;2024-01-06T01:49:15;93768.53;;;4.72;100.00
36828;BME280;22766;48.042;11.192;2024-01-06T01:51:42;93770.13;;;4.73;100.00
36828;BME280;22766;48.042;11.192;2024-01-06T01:54:11;93766.41;;;4.67;100.00
36828;BME280;22766;48.042;11.192;2024-01-06T01:56:39;93771.25;;;4.70;100.00
36828;BME280;22766;48.042;11.192;2024-01-06T01:59:11;93768.53;;;4.72;100.00
36828;BME280;22766;48.042;11.192;2024-01-06T02:01:40;93765.47;;;4.68;100.00
36828;BME280;22766;48.042;11.192;2024-01-06T02:04:08;93775.13;;;4.57;100.00
36828;BME280;22766;48.042;11.192;2024-01-06T02:06:35;93769.63;;;4.69;100.00
36828;BME280;22766;48.042;11.192;2024-01-06T02:09:02;93765.63;;;4.67;100.00
36828;BME280;22766;48.042;11.192;2024-01-06T02:11:29;93766.88;;;4.63;100.00
36828;BME280;22766;48.042;11.192;2024-01-06T02:13:56;93769.44;;;4.63;100.00
36828;BME280;22766;48.042;11.192;2024-01-06T02:16:22;93773.00;;;4.52;100.00
36828;BME280;22766;48.042;11.192;2024-01-06T02:18:49;93764.25;;;4.55;100.00
36828;BME280;22766;48.042;11.192;2024-01-06T02:21:17;93770.00;;;4.57;100.00
36828;BME280;22766;48.042;11.192;2024-01-06T02:23:44;93767.84;;;4.44;100.00
36828;BME280;22766;48.042;11.192;2024-01-06T02:26:11;93771.47;;;4.42;100.00
36828;BME280;22766;48.042;11.192;2024-01-06T02:28:39;93772.69;;;4.38;100.00
36828;BME280;22766;48.042;11.192;2024-01-06T02:31:06;93778.16;;;4.43;100.00
36828;BME280;22766;48.042;11.192;2024-01-06T02:33:33;93786.72;;;4.34;100.00
36828;BME280;22766;48.042;11.192;2024-01-06T02:36:00;93778.38;;;4.32;100.00
36828;BME280;22766;48.042;11.192;2024-01-06T02:38:27;93783.34;;;4.33;100.00
36828;BME280;22766;48.042;11.192;2024-01-06T02:40:54;93785.63;;;4.36;100.00
36828;BME280;22766;48.042;11.192;2024-01-06T02:43:20;93783.22;;;4.35;100.00
36828;BME280;22766;48.042;11.192;2024-01-06T02:45:49;93782.94;;;4.38;100.00
36828;BME280;22766;48.042;11.192;2024-01-06T02:48:16;93784.66;;;4.37;100.00
36828;BME280;22766;48.042;11.192;2024-01-06T02:50:43;93788.91;;;4.29;100.00
36828;BME280;22766;48.042;11.192;2024-01-06T02:53:10;93789.63;;;4.21;100.00
36828;BME280;22766;48.042;11.192;2024-01-06T02:55:39;93791.47;;;4.29;100.00
36828;BME280;22766;48.042;11.192;2024-01-06T02:58:06;93794.94;;;4.28;100.00
36828;BME280;22766;48.042;11.192;2024-01-06T03:00:33;93800.31;;;4.34;100.00
36828;BME280;22766;48.042;11.192;2024-01-06T03:03:00;93796.94;;;4.34;100.00
36828;BME280;22766;48.042;11.192;2024-01-06T03:05:27;93804.31;;;4.37;100.00
36828;BME280;22766;48.042;11.192;2024-01-06T03:07:54;93807.00;;;4.35;100.00
36828;BME280;22766;48.042;11.192;2024-01-06T03:10:20;93804.25;;;4.29;100.00
36828;BME280;22766;48.042;11.192;2024-01-06T03:12:47;93811.19;;;4.36;100.00
36828;BME280;22766;48.042;11.192;2024-01-06T03:15:14;93805.81;;;4.30;100.00
36828;BME280;22766;48.042;11.192;2024-01-06T03:17:41;93807.88;;;4.26;100.00
36828;BME280;22766;48.042;11.192;2024-01-06T03:20:08;93810.28;;;4.28;100.00
36828;BME280;22766;48.042;11.192;2024-01-06T03:22:35;93813.06;;;4.34;100.00
36828;BME280;22766;48.042;11.192;2024-01-06T03:25:02;93811.53;;;4.41;100.00
36828;BME280;22766;48.042;11.192;2024-01-06T03:27:29;93806.06;;;4.36;100.00
36828;BME280;22766;48.042;11.192;2024-01-06T03:29:56;93806.78;;;4.29;100.00
36828;BME280;22766;48.042;11.192;2024-01-06T03:32:23;93804.94;;;4.21;100.00
36828;BME280;22766;48.042;11.192;2024-01-06T03:34:51;93810.44;;;4.26;100.00
36828;BME280;22766;48.042;11.192;2024-01-06T03:37:18;93815.13;;;4.31;100.00
36828;BME280;22766;48.042;11.192;2024-01-06T03:39:45;93820.22;;;4.31;100.00
36828;BME280;22766;48.042;11.192;2024-01-06T03:42:11;93820.34;;;4.29;100.00
36828;BME280;22766;48.042;11.192;2024-01-06T03:44:38;93818.94;;;4.17;100.00
36828;BME280;22766;48.042;11.192;2024-01-06T03:47:05;93821.66;;;4.16;100.00
36828;BME280;22766;48.042;11.192;2024-01-06T03:49:32;93818.56;;;4.12;100.00
36828;BME280;22766;48.042;11.192;2024-01-06T03:51:59;93818.72;;;4.11;100.00
36828;BME280;22766;48.042;11.192;2024-01-06T03:54:26;93823.03;;;4.10;100.00
36828;BME280;22766;48.042;11.192;2024-01-06T03:56:53;93819.81;;;4.08;100.00
36828;BME280;22766;48.042;11.192;2024-01-06T03:59:19;93828.41;;;4.07;100.00
36828;BME280;22766;48.042;11.192;2024-01-06T04:01:46;93831.44;;;3.93;100.00
36828;BME280;22766;48.042;11.192;2024-01-06T04:04:13;93833.19;;;3.93;100.00
36828;BME280;22766;48.042;11.192;2024-01-06T04:06:40;93823.22;;;3.90;100.00
36828;BME280;22766;48.042;11.192;2024-01-06T04:09:07;93834.56;;;3.87;100.00
36828;BME280;22766;48.042;11.192;2024-01-06T04:11:35;93836.59;;;3.84;100.00
36828;BME280;22766;48.042;11.192;2024-01-06T04:14:02;93844.66;;;3.79;100.00
36828;BME280;22766;48.042;11.192;2024-01-06T04:16:28;93845.31;;;3.81;100.00
36828;BME280;22766;48.042;11.192;2024-01-06T04:18:55;93841.16;;;3.70;100.00
36828;BME280;22766;48.042;11.192;2024-01-06T04:21:23;93845.59;;;3.78;100.00
36828;BME280;22766;48.042;11.192;2024-01-06T04:23:50;93840.91;;;3.73;100.00
36828;BME280;22766;48.042;11.192;2024-01-06T04:26:16;93844.13;;;3.75;100.00
36828;BME280;22766;48.042;11.192;2024-01-06T04:28:43;93840.53;;;3.68;100.00
36828;BME280;22766;48.042;11.192;2024-01-06T04:31:10;93847.22;;;3.69;100.00
36828;BME280;22766;48.042;11.192;2024-01-06T04:33:37;93842.13;;;3.69;100.00
36828;BME280;22766;48.042;11.192;2024-01-06T04:36:07;93849.53;;;3.63;100.00
36828;BME280;22766;48.042;11.192;2024-01-06T04:38:33;93853.31;;;3.59;100.00
36828;BME280;22766;48.042;11.192;2024-01-06T04:41:00;93849.97;;;3.58;100.00
36828;BME280;22766;48.042;11.192;2024-01-06T04:43:27;93854.63;;;3.63;100.00
36828;BME280;22766;48.042;11.192;2024-01-06T04:45:54;93853.44;;;3.57;100.00
36828;BME280;22766;48.042;11.192;2024-01-06T04:48:21;93861.53;;;3.53;100.00
36828;BME280;22766;48.042;11.192;2024-01-06T04:50:48;93862.44;;;3.52;100.00
36828;BME280;22766;48.042;11.192;2024-01-06T04:53:15;93866.09;;;3.59;100.00
36828;BME280;22766;48.042;11.192;2024-01-06T04:55:41;93866.34;;;3.56;100.00
36828;BME280;22766;48.042;11.192;2024-01-06T04:58:08;93866.72;;;3.61;100.00
36828;BME280;22766;48.042;11.192;2024-01-06T05:00:35;93869.97;;;3.53;100.00
36828;BME280;22766;48.042;11.192;2024-01-06T05:03:03;93878.44;;;3.54;100.00
36828;BME280;22766;48.042;11.192;2024-01-06T05:05:30;93874.13;;;3.54;100.00
36828;BME280;22766;48.042;11.192;2024-01-06T05:07:57;93878.84;;;3.49;100.00
36828;BME280;22766;48.042;11.192;2024-01-06T05:10:25;93885.56;;;3.50;100.00
36828;BME280;22766;48.042;11.192;2024-01-06T05:12:51;93892.28;;;3.51;100.00
36828;BME280;22766;48.042;11.192;2024-01-06T05:15:18;93884.50;;;3.43;100.00
36828;BME280;22766;48.042;11.192;2024-01-06T05:17:45;93887.97;;;3.52;100.00
36828;BME280;22766;48.042;11.192;2024-01-06T05:20:12;93890.97;;;3.38;100.00
36828;BME280;22766;48.042;11.192;2024-01-06T05:22:39;93899.41;;;3.29;100.00
36828;BME280;22766;48.042;11.192;2024-01-06T05:25:06;93891.22;;;3.16;100.00
36828;BME280;22766;48.042;11.192;2024-01-06T05:27:33;93892.31;;;3.13;100.00
36828;BME280;22766;48.042;11.192;2024-01-06T05:29:59;93902.91;;;3.18;100.00
36828;BME280;22766;48.042;11.192;2024-01-06T05:32:26;93909.22;;;3.14;100.00
36828;BME280;22766;48.042;11.192;2024-01-06T05:34:53;93912.16;;;3.19;100.00
36828;BME280;22766;48.042;11.192;2024-01-06T05:37:20;93918.34;;;3.17;100.00
36828;BME280;22766;48.042;11.192;2024-01-06T05:39:47;93922.25;;;3.11;100.00
36828;BME280;22766;48.042;11.192;2024-01-06T05:42:15;93926.00;;;3.17;100.00
36828;BME280;22766;48.042;11.192;2024-01-06T05:44:41;93928.94;;;3.12;100.00
36828;BME280;22766;48.042;11.192;2024-01-06T05:47:08;93939.00;;;3.04;100.00
36828;BME280;22766;48.042;11.192;2024-01-06T05:49:35;93926.53;;;2.92;100.00
36828;BME280;22766;48.042;11.192;2024-01-06T05:52:02;93929.06;;;3.01;100.00
36828;BME280;22766;48.042;11.192;2024-01-06T05:54:29;93940.75;;;2.84;100.00
36828;BME280;22766;48.042;11.192;2024-01-06T05:56:57;93936.31;;;2.96;100.00
36828;BME280;22766;48.042;11.192;2024-01-06T05:59:23;93941.50;;;2.75;100.00
36828;BME280;22766;48.042;11.192;2024-01-06T06:01:51;93944.63;;;2.79;100.00
36828;BME280;22766;48.042;11.192;2024-01-06T06:04:18;93952.38;;;2.77;100.00
36828;BME280;22766;48.042;11.192;2024-01-06T06:06:45;93949.41;;;2.63;100.00
36828;BME280;22766;48.042;11.192;2024-01-06T06:09:12;93955.56;;;2.60;100.00
36828;BME280;22766;48.042;11.192;2024-01-06T06:11:40;93959.34;;;2.66;100.00
36828;BME280;22766;48.042;11.192;2024-01-06T06:14:06;93965.78;;;2.70;100.00
36828;BME280;22766;48.042;11.192;2024-01-06T06:16:33;93964.56;;;2.64;100.00
36828;BME280;22766;48.042;11.192;2024-01-06T06:19:00;93963.88;;;2.62;100.00
36828;BME280;22766;48.042;11.192;2024-01-06T06:21:28;93970.59;;;2.63;100.00
36828;BME280;22766;48.042;11.192;2024-01-06T06:23:54;93972.16;;;2.55;100.00
36828;BME280;22766;48.042;11.192;2024-01-06T06:26:22;93968.53;;;2.48;100.00
36828;BME280;22766;48.042;11.192;2024-01-06T06:28:48;93969.47;;;2.47;100.00
36828;BME280;22766;48.042;11.192;2024-01-06T06:31:15;93963.59;;;2.56;100.00
36828;BME280;22766;48.042;11.192;2024-01-06T06:33:42;93969.91;;;2.61;100.00
36828;BME280;22766;48.042;11.192;2024-01-06T06:36:10;93974.75;;;2.64;100.00
36828;BME280;22766;48.042;11.192;2024-01-06T06:38:36;93974.19;;;2.61;100.00
36828;BME280;22766;48.042;11.192;2024-01-06T06:41:03;93988.56;;;2.62;100.00
36828;BME280;22766;48.042;11.192;2024-01-06T06:43:30;93979.69;;;2.56;100.00
36828;BME280;22766;48.042;11.192;2024-01-06T06:45:57;93980.88;;;2.52;100.00
36828;BME280;22766;48.042;11.192;2024-01-06T06:48:24;93990.31;;;2.61;100.00
36828;BME280;22766;48.042;11.192;2024-01-06T06:50:50;93987.06;;;2.59;100.00
36828;BME280;22766;48.042;11.192;2024-01-06T06:53:17;93983.75;;;2.68;100.00
36828;BME280;22766;48.042;11.192;2024-01-06T06:55:44;93988.16;;;2.66;100.00
36828;BME280;22766;48.042;11.192;2024-01-06T06:58:11;93994.59;;;2.61;100.00
36828;BME280;22766;48.042;11.192;2024-01-06T07:00:38;93995.94;;;2.65;100.00
36828;BME280;22766;48.042;11.192;2024-01-06T07:03:05;93990.56;;;2.68;100.00
36828;BME280;22766;48.042;11.192;2024-01-06T07:05:32;94001.19;;;2.73;100.00
36828;BME280;22766;48.042;11.192;2024-01-06T07:08:02;94002.03;;;2.83;100.00
36828;BME280;22766;48.042;11.192;2024-01-06T07:10:29;94005.84;;;2.98;100.00
36828;BME280;22766;48.042;11.192;2024-01-06T07:12:56;93998.72;;;2.92;100.00
36828;BME280;22766;48.042;11.192;2024-01-06T07:15:23;94003.81;;;2.92;100.00
36828;BME280;22766;48.042;11.192;2024-01-06T07:17:50;94002.63;;;2.96;100.00
36828;BME280;22766;48.042;11.192;2024-01-06T07:20:17;94005.53;;;2.92;100.00
36828;BME280;22766;48.042;11.192;2024-01-06T07:22:44;94011.03;;;2.87;100.00
36828;BME280;22766;48.042;11.192;2024-01-06T07:25:10;94014.13;;;2.91;100.00
36828;BME280;22766;48.042;11.192;2024-01-06T07:27:37;94020.28;;;2.88;100.00
36828;BME280;22766;48.042;11.192;2024-01-06T07:30:05;94024.19;;;2.92;100.00
36828;BME280;22766;48.042;11.192;2024-01-06T07:32:33;94029.56;;;2.99;100.00
36828;BME280;22766;48.042;11.192;2024-01-06T07:35:00;94032.13;;;3.08;100.00
36828;BME280;22766;48.042;11.192;2024-01-06T07:37:32;94035.50;;;3.09;100.00
36828;BME280;22766;48.042;11.192;2024-01-06T07:39:59;94038.56;;;3.03;100.00
36828;BME280;22766;48.042;11.192;2024-01-06T07:42:26;94033.75;;;3.00;100.00
36828;BME280;22766;48.042;11.192;2024-01-06T07:44:53;94043.00;;;3.01;100.00
36828;BME280;22766;48.042;11.192;2024-01-06T07:47:20;94043.81;;;3.01;100.00
36828;BME280;22766;48.042;11.192;2024-01-06T07:49:46;94046.09;;;3.04;100.00
36828;BME280;22766;48.042;11.192;2024-01-06T07:52:14;94042.47;;;3.07;100.00
36828;BME280;22766;48.042;11.192;2024-01-06T07:54:41;94051.38;;;3.22;100.00
36828;BME280;22766;48.042;11.192;2024-01-06T07:57:07;94057.81;;;3.26;100.00
36828;BME280;22766;48.042;11.192;2024-01-06T07:59:34;94055.25;;;3.16;100.00
36828;BME280;22766;48.042;11.192;2024-01-06T08:02:01;94054.94;;;3.10;100.00
36828;BME280;22766;48.042;11.192;2024-01-06T08:04:28;94052.69;;;3.16;100.00
36828;BME280;22766;48.042;11.192;2024-01-06T08:06:55;94054.84;;;3.11;100.00
36828;BME280;22766;48.042;11.192;2024-01-06T08:09:22;94056.03;;;3.07;100.00
36828;BME280;22766;48.042;11.192;2024-01-06T08:11:50;94052.00;;;3.05;100.00
36828;BME280;22766;48.042;11.192;2024-01-06T08:14:17;94057.78;;;3.07;100.00
36828;BME280;22766;48.042;11.192;2024-01-06T08:16:44;94058.31;;;3.10;100.00
36828;BME280;22766;48.042;11.192;2024-01-06T08:19:11;94061.28;;;3.06;100.00
36828;BME280;22766;48.042;11.192;2024-01-06T08:21:38;94061.38;;;3.04;100.00
36828;BME280;22766;48.042;11.192;2024-01-06T08:24:05;94061.13;;;3.07;100.00
36828;BME280;22766;48.042;11.192;2024-01-06T08:26:32;94065.97;;;3.10;100.00
36828;BME280;22766;48.042;11.192;2024-01-06T08:28:59;94064.94;;;3.22;100.00
36828;BME280;22766;48.042;11.192;2024-01-06T08:31:26;94079.28;;;3.23;100.00
36828;BME280;22766;48.042;11.192;2024-01-06T08:33:52;94073.09;;;3.16;100.00
36828;BME280;22766;48.042;11.192;2024-01-06T08:36:19;94070.94;;;3.12;100.00
36828;BME280;22766;48.042;11.192;2024-01-06T08:38:46;94079.66;;;3.09;100.00
36828;BME280;22766;48.042;11.192;2024-01-06T08:41:13;94074.47;;;3.20;100.00
36828;BME280;22766;48.042;11.192;2024-01-06T08:43:39;94074.63;;;3.28;100.00
36828;BME280;22766;48.042;11.192;2024-01-06T08:46:06;94084.28;;;3.25;100.00
36828;BME280;22766;48.042;11.192;2024-01-06T08:48:33;94083.72;;;3.21;100.00
36828;BME280;22766;48.042;11.192;2024-01-06T08:51:01;94088.41;;;3.16;100.00
36828;BME280;22766;48.042;11.192;2024-01-06T08:53:28;94091.31;;;3.12;100.00
36828;BME280;22766;48.042;11.192;2024-01-06T08:55:55;94091.97;;;3.04;100.00
36828;BME280;22766;48.042;11.192;2024-01-06T08:58:22;94097.06;;;3.04;100.00
36828;BME280;22766;48.042;11.192;2024-01-06T09:00:50;94100.03;;;3.00;100.00
36828;BME280;22766;48.042;11.192;2024-01-06T09:03:17;94094.53;;;3.04;100.00
36828;BME280;22766;48.042;11.192;2024-01-06T09:05:44;94092.56;;;3.27;100.00
36828;BME280;22766;48.042;11.192;2024-01-06T09:08:14;94095.16;;;3.46;100.00
36828;BME280;22766;48.042;11.192;2024-01-06T09:10:41;94098.97;;;3.51;100.00
36828;BME280;22766;48.042;11.192;2024-01-06T09:13:09;94098.91;;;3.23;100.00
36828;BME280;22766;48.042;11.192;2024-01-06T09:15:36;94102.16;;;3.34;100.00
36828;BME280;22766;48.042;11.192;2024-01-06T09:18:03;94096.00;;;3.46;100.00
36828;BME280;22766;48.042;11.192;2024-01-06T09:20:31;94099.19;;;3.39;100.00
36828;BME280;22766;48.042;11.192;2024-01-06T09:22:57;94101.19;;;3.26;100.00
36828;BME280;22766;48.042;11.192;2024-01-06T09:25:24;94108.69;;;3.27;100.00
36828;BME280;22766;48.042;11.192;2024-01-06T09:27:52;94109.66;;;2.87;100.00
36828;BME280;22766;48.042;11.192;2024-01-06T09:30:20;94112.69;;;2.80;100.00
36828;BME280;22766;48.042;11.192;2024-01-06T09:32:47;94114.66;;;2.67;100.00
36828;BME280;22766;48.042;11.192;2024-01-06T09:35:14;94120.13;;;2.63;100.00
36828;BME280;22766;48.042;11.192;2024-01-06T09:37:41;94121.56;;;2.56;100.00
36828;BME280;22766;48.042;11.192;2024-01-06T09:40:11;94127.78;;;2.42;100.00
36828;BME280;22766;48.042;11.192;2024-01-06T09:42:40;94135.91;;;2.36;100.00
36828;BME280;22766;48.042;11.192;2024-01-06T09:45:07;94133.56;;;2.44;100.00
36828;BME280;22766;48.042;11.192;2024-01-06T09:47:35;94136.16;;;2.54;100.00
36828;BME280;22766;48.042;11.192;2024-01-06T09:50:03;94129.28;;;2.45;100.00
36828;BME280;22766;48.042;11.192;2024-01-06T09:52:33;94135.41;;;2.42;100.00
36828;BME280;22766;48.042;11.192;2024-01-06T09:55:05;94131.75;;;2.35;100.00
36828;BME280;22766;48.042;11.192;2024-01-06T09:57:37;94130.75;;;2.47;100.00
36828;BME280;22766;48.042;11.192;2024-01-06T10:00:04;94129.38;;;2.43;100.00
36828;BME280;22766;48.042;11.192;2024-01-06T10:02:37;94121.75;;;2.43;100.00
36828;BME280;22766;48.042;11.192;2024-01-06T10:05:04;94120.81;;;2.44;100.00
36828;BME280;22766;48.042;11.192;2024-01-06T10:07:32;94111.31;;;2.46;100.00
36828;BME280;22766;48.042;11.192;2024-01-06T10:09:59;94101.69;;;2.50;100.00
36828;BME280;22766;48.042;11.192;2024-01-06T10:12:26;94096.44;;;2.51;100.00
36828;BME280;22766;48.042;11.192;2024-01-06T10:14:58;94096.38;;;2.62;100.00
36828;BME280;22766;48.042;11.192;2024-01-06T10:17:25;94098.72;;;2.75;100.00
36828;BME280;22766;48.042;11.192;2024-01-06T10:19:51;94096.81;;;2.67;100.00
36828;BME280;22766;48.042;11.192;2024-01-06T10:22:20;94101.28;;;2.75;100.00
36828;BME280;22766;48.042;11.192;2024-01-06T10:24:47;94109.28;;;2.70;100.00
36828;BME280;22766;48.042;11.192;2024-01-06T10:27:13;94106.59;;;2.72;100.00
36828;BME280;22766;48.042;11.192;2024-01-06T10:29:40;94108.78;;;2.76;100.00
36828;BME280;22766;48.042;11.192;2024-01-06T10:32:07;94108.41;;;2.81;100.00
36828;BME280;22766;48.042;11.192;2024-01-06T10:34:34;94108.38;;;2.71;100.00
36828;BME280;22766;48.042;11.192;2024-01-06T10:37:03;94108.91;;;2.75;100.00
36828;BME280;22766;48.042;11.192;2024-01-06T10:39:32;94102.78;;;2.87;100.00
36828;BME280;22766;48.042;11.192;2024-01-06T10:42:06;94103.72;;;2.86;100.00
36828;BME280;22766;48.042;11.192;2024-01-06T10:44:34;94098.22;;;2.81;100.00
36828;BME280;22766;48.042;11.192;2024-01-06T10:47:02;94104.00;;;2.83;100.00
36828;BME280;22766;48.042;11.192;2024-01-06T10:49:30;94104.06;;;2.72;100.00
36828;BME280;22766;48.042;11.192;2024-01-06T10:51:58;94099.56;;;2.85;100.00
36828;BME280;22766;48.042;11.192;2024-01-06T10:54:26;94101.56;;;2.81;100.00
36828;BME280;22766;48.042;11.192;2024-01-06T10:56:57;94094.25;;;2.67;100.00
36828;BME280;22766;48.042;11.192;2024-01-06T10:59:26;94093.09;;;2.71;100.00
36828;BME280;22766;48.042;11.192;2024-01-06T11:01:53;94093.75;;;2.73;100.00
36828;BME280;22766;48.042;11.192;2024-01-06T11:04:22;94091.50;;;2.80;100.00
36828;BME280;22766;48.042;11.192;2024-01-06T11:06:50;94095.09;;;2.77;100.00
36828;BME280;22766;48.042;11.192;2024-01-06T11:09:23;94092.63;;;2.66;100.00
36828;BME280;22766;48.042;11.192;2024-01-06T11:11:52;94091.16;;;2.64;100.00
36828;BME280;22766;48.042;11.192;2024-01-06T11:14:26;94087.41;;;2.68;100.00
36828;BME280;22766;48.042;11.192;2024-01-06T11:16:55;94093.72;;;2.64;100.00
36828;BME280;22766;48.042;11.192;2024-01-06T11:22:25;94085.72;;;2.78;100.00
36828;BME280;22766;48.042;11.192;2024-01-06T11:25:06;94090.00;;;2.77;100.00
36828;BME280;22766;48.042;11.192;2024-01-06T11:27:35;94085.53;;;2.70;100.00
36828;BME280;22766;48.042;11.192;2024-01-06T11:30:03;94086.06;;;2.64;100.00
36828;BME280;22766;48.042;11.192;2024-01-06T11:35:09;94087.34;;;2.79;100.00
36828;BME280;22766;48.042;11.192;2024-01-06T11:42:36;94077.72;;;2.92;100.00
36828;BME280;22766;48.042;11.192;2024-01-06T11:45:04;94079.88;;;2.97;100.00
36828;BME280;22766;48.042;11.192;2024-01-06T11:47:35;94070.66;;;3.05;100.00
36828;BME280;22766;48.042;11.192;2024-01-06T11:50:02;94074.69;;;2.98;100.00
36828;BME280;22766;48.042;11.192;2024-01-06T11:52:33;94064.19;;;3.01;100.00
36828;BME280;22766;48.042;11.192;2024-01-06T11:55:00;94060.56;;;2.94;100.00
36828;BME280;22766;48.042;11.192;2024-01-06T11:57:28;94058.53;;;2.88;100.00
36828;BME280;22766;48.042;11.192;2024-01-06T11:59:55;94062.13;;;2.85;100.00
36828;BME280;22766;48.042;11.192;2024-01-06T12:02:22;94057.31;;;2.82;100.00
36828;BME280;22766;48.042;11.192;2024-01-06T12:04:50;94058.66;;;2.87;100.00
36828;BME280;22766;48.042;11.192;2024-01-06T12:07:19;94059.34;;;2.89;100.00
36828;BME280;22766;48.042;11.192;2024-01-06T12:09:46;94057.34;;;2.92;100.00
36828;BME280;22766;48.042;11.192;2024-01-06T12:12:18;94052.41;;;3.00;100.00
36828;BME280;22766;48.042;11.192;2024-01-06T12:14:45;94050.56;;;3.21;100.00
36828;BME280;22766;48.042;11.192;2024-01-06T12:17:13;94043.84;;;3.11;100.00
36828;BME280;22766;48.042;11.192;2024-01-06T12:19:40;94051.03;;;2.96;100.00
36828;BME280;22766;48.042;11.192;2024-01-06T12:22:13;94049.84;;;3.00;100.00
36828;BME280;22766;48.042;11.192;2024-01-06T12:24:41;94055.00;;;3.29;100.00
36828;BME280;22766;48.042;11.192;2024-01-06T12:27:09;94051.88;;;3.16;100.00
36828;BME280;22766;48.042;11.192;2024-01-06T12:29:40;94056.16;;;2.96;100.00
36828;BME280;22766;48.042;11.192;2024-01-06T12:32:09;94051.28;;;2.93;100.00
36828;BME280;22766;48.042;11.192;2024-01-06T12:34:36;94057.03;;;2.85;100.00
36828;BME280;22766;48.042;11.192;2024-01-06T12:37:03;94052.41;;;3.00;100.00
36828;BME280;22766;48.042;11.192;2024-01-06T12:39:30;94055.94;;;3.18;100.00
36828;BME280;22766;48.042;11.192;2024-01-06T12:41:57;94051.22;;;3.23;100.00
36828;BME280;22766;48.042;11.192;2024-01-06T12:44:26;94047.59;;;3.16;100.00
36828;BME280;22766;48.042;11.192;2024-01-06T12:46:59;94053.78;;;3.23;100.00
36828;BME280;22766;48.042;11.192;2024-01-06T12:49:25;94050.66;;;3.10;100.00
36828;BME280;22766;48.042;11.192;2024-01-06T12:51:52;94056.03;;;3.07;100.00
36828;BME280;22766;48.042;11.192;2024-01-06T12:54:20;94055.38;;;3.15;100.00
36828;BME280;22766;48.042;11.192;2024-01-06T12:56:47;94053.75;;;3.14;100.00
36828;BME280;22766;48.042;11.192;2024-01-06T12:59:14;94054.31;;;3.27;100.00
36828;BME280;22766;48.042;11.192;2024-01-06T13:01:41;94059.97;;;3.21;100.00